sensor_id;sensor_type;location;lat;lon;timestamp;temperature;humidity
7030;DHT22;3556;53.500;10.176;2022-12-07T00:01:03;2.50;99.90
7030;DHT22;3556;53.500;10.176;2022-12-07T00:03:29;2.50;99.90
7030;DHT22;3556;53.500;10.176;2022-12-07T00:05:58;2.50;99.90
7030;DHT22;3556;53.500;10.176;2022-12-07T00:08:24;2.60;99.90
7030;DHT22;3556;53.500;10.176;2022-12-07T00:10:49;2.60;99.90
7030;DHT22;3556;53.500;10.176;2022-12-07T00:13:15;2.60;99.90
7030;DHT22;3556;53.500;10.176;2022-12-07T00:15:41;2.70;99.90
7030;DHT22;3556;53.500;10.176;2022-12-07T00:18:06;2.80;99.90
7030;DHT22;3556;53.500;10.176;2022-12-07T00:20:32;2.80;99.90
7030;DHT22;3556;53.500;10.176;2022-12-07T00:22:59;2.80;99.90
7030;DHT22;3556;53.500;10.176;2022-12-07T00:25:25;2.80;99.90
7030;DHT22;3556;53.500;10.176;2022-12-07T00:27:53;2.90;99.90
7030;DHT22;3556;53.500;10.176;2022-12-07T00:30:19;2.90;99.90
7030;DHT22;3556;53.500;10.176;2022-12-07T00:32:44;2.90;99.90
7030;DHT22;3556;53.500;10.176;2022-12-07T00:35:10;3.00;99.90
7030;DHT22;3556;53.500;10.176;2022-12-07T00:37:35;3.00;99.90
7030;DHT22;3556;53.500;10.176;2022-12-07T00:40:02;3.00;99.90
7030;DHT22;3556;53.500;10.176;2022-12-07T00:42:27;3.00;99.90
7030;DHT22;3556;53.500;10.176;2022-12-07T00:44:53;3.00;99.90
7030;DHT22;3556;53.500;10.176;2022-12-07T00:47:19;3.00;99.90
7030;DHT22;3556;53.500;10.176;2022-12-07T00:49:44;3.00;99.90
7030;DHT22;3556;53.500;10.176;2022-12-07T00:52:10;3.00;99.90
7030;DHT22;3556;53.500;10.176;2022-12-07T00:54:35;3.00;99.90
7030;DHT22;3556;53.500;10.176;2022-12-07T00:57:01;3.00;99.90
7030;DHT22;3556;53.500;10.176;2022-12-07T00:59:27;2.90;99.90
7030;DHT22;3556;53.500;10.176;2022-12-07T01:01:52;2.90;99.90
7030;DHT22;3556;53.500;10.176;2022-12-07T01:04:18;2.90;99.90
7030;DHT22;3556;53.500;10.176;2022-12-07T01:06:43;2.90;99.90
7030;DHT22;3556;53.500;10.176;2022-12-07T01:09:09;2.80;99.90
7030;DHT22;3556;53.500;10.176;2022-12-07T01:11:35;2.90;99.90
7030;DHT22;3556;53.500;10.176;2022-12-07T01:14:01;2.90;99.90
7030;DHT22;3556;53.500;10.176;2022-12-07T01:16:29;2.90;99.90
7030;DHT22;3556;53.500;10.176;2022-12-07T01:18:56;2.90;99.90
7030;DHT22;3556;53.500;10.176;2022-12-07T01:21:31;2.90;99.90
7030;DHT22;3556;53.500;10.176;2022-12-07T01:24:01;2.90;99.90
7030;DHT22;3556;53.500;10.176;2022-12-07T01:26:27;3.00;99.90
7030;DHT22;3556;53.500;10.176;2022-12-07T01:28:53;3.00;99.90
7030;DHT22;3556;53.500;10.176;2022-12-07T01:31:21;3.00;99.90
7030;DHT22;3556;53.500;10.176;2022-12-07T01:33:51;3.10;99.90
7030;DHT22;3556;53.500;10.176;2022-12-07T01:38:45;3.10;99.90
7030;DHT22;3556;53.500;10.176;2022-12-07T01:41:11;3.20;99.90
7030;DHT22;3556;53.500;10.176;2022-12-07T01:46:35;3.20;99.90
7030;DHT22;3556;53.500;10.176;2022-12-07T01:49:01;3.10;99.90
7030;DHT22;3556;53.500;10.176;2022-12-07T01:51:28;3.20;99.90
7030;DHT22;3556;53.500;10.176;2022-12-07T01:53:55;3.10;99.90
7030;DHT22;3556;53.500;10.176;2022-12-07T01:56:24;3.20;99.90
7030;DHT22;3556;53.500;10.176;2022-12-07T01:58:52;3.10;99.90
7030;DHT22;3556;53.500;10.176;2022-12-07T02:01:18;3.10;99.90
7030;DHT22;3556;53.500;10.176;2022-12-07T02:03:44;3.10;99.90
7030;DHT22;3556;53.500;10.176;2022-12-07T02:06:12;3.10;99.90
7030;DHT22;3556;53.500;10.176;2022-12-07T02:08:41;3.10;99.90
7030;DHT22;3556;53.500;10.176;2022-12-07T02:11:07;3.20;99.90
7030;DHT22;3556;53.500;10.176;2022-12-07T02:13:36;3.20;99.90
7030;DHT22;3556;53.500;10.176;2022-12-07T02:25:08;3.30;99.90
7030;DHT22;3556;53.500;10.176;2022-12-07T02:27:28;3.30;99.90
7030;DHT22;3556;53.500;10.176;2022-12-07T02:30:05;3.20;99.90
7030;DHT22;3556;53.500;10.176;2022-12-07T02:35:20;3.20;99.90
7030;DHT22;3556;53.500;10.176;2022-12-07T02:38:04;3.10;99.90
7030;DHT22;3556;53.500;10.176;2022-12-07T02:40:44;3.10;99.90
7030;DHT22;3556;53.500;10.176;2022-12-07T02:43:16;3.00;99.90
7030;DHT22;3556;53.500;10.176;2022-12-07T02:45:44;2.90;99.90
7030;DHT22;3556;53.500;10.176;2022-12-07T02:48:14;2.90;99.90
7030;DHT22;3556;53.500;10.176;2022-12-07T02:50:48;2.80;99.90
7030;DHT22;3556;53.500;10.176;2022-12-07T02:53:33;2.80;99.90
7030;DHT22;3556;53.500;10.176;2022-12-07T02:56:39;2.80;99.90
7030;DHT22;3556;53.500;10.176;2022-12-07T03:02:14;2.90;99.90
7030;DHT22;3556;53.500;10.176;2022-12-07T03:05:07;2.90;99.90
7030;DHT22;3556;53.500;10.176;2022-12-07T03:07:58;2.90;99.90
7030;DHT22;3556;53.500;10.176;2022-12-07T03:13:22;2.90;99.90
7030;DHT22;3556;53.500;10.176;2022-12-07T03:18:23;3.00;99.90
7030;DHT22;3556;53.500;10.176;2022-12-07T03:20:52;3.00;99.90
7030;DHT22;3556;53.500;10.176;2022-12-07T03:23:19;2.90;99.90
7030;DHT22;3556;53.500;10.176;2022-12-07T03:28:24;2.80;99.90
7030;DHT22;3556;53.500;10.176;2022-12-07T03:31:17;2.80;99.90
7030;DHT22;3556;53.500;10.176;2022-12-07T03:36:22;2.70;99.90
7030;DHT22;3556;53.500;10.176;2022-12-07T03:41:31;2.60;99.90
7030;DHT22;3556;53.500;10.176;2022-12-07T03:43:58;2.60;99.90
7030;DHT22;3556;53.500;10.176;2022-12-07T03:46:44;2.50;99.90
7030;DHT22;3556;53.500;10.176;2022-12-07T03:52:26;2.50;99.90
7030;DHT22;3556;53.500;10.176;2022-12-07T03:54:56;2.50;99.90
7030;DHT22;3556;53.500;10.176;2022-12-07T03:57:24;2.50;99.90
7030;DHT22;3556;53.500;10.176;2022-12-07T03:59:51;2.50;99.90
7030;DHT22;3556;53.500;10.176;2022-12-07T04:02:18;2.60;99.90
7030;DHT22;3556;53.500;10.176;2022-12-07T04:04:45;2.60;99.90
7030;DHT22;3556;53.500;10.176;2022-12-07T04:07:11;2.50;99.90
7030;DHT22;3556;53.500;10.176;2022-12-07T04:09:36;2.50;99.90
7030;DHT22;3556;53.500;10.176;2022-12-07T04:12:02;2.50;99.90
7030;DHT22;3556;53.500;10.176;2022-12-07T04:14:27;2.50;99.90
7030;DHT22;3556;53.500;10.176;2022-12-07T04:16:56;2.50;99.90
7030;DHT22;3556;53.500;10.176;2022-12-07T04:19:30;2.60;99.90
7030;DHT22;3556;53.500;10.176;2022-12-07T04:21:57;2.60;99.90
7030;DHT22;3556;53.500;10.176;2022-12-07T04:24:23;2.60;99.90
7030;DHT22;3556;53.500;10.176;2022-12-07T04:26:49;2.50;99.90
7030;DHT22;3556;53.500;10.176;2022-12-07T04:29:16;2.50;99.90
7030;DHT22;3556;53.500;10.176;2022-12-07T04:31:42;2.50;99.90
7030;DHT22;3556;53.500;10.176;2022-12-07T04:34:08;2.50;99.90
7030;DHT22;3556;53.500;10.176;2022-12-07T04:36:34;2.50;99.90
7030;DHT22;3556;53.500;10.176;2022-12-07T04:39:00;2.40;99.90
7030;DHT22;3556;53.500;10.176;2022-12-07T04:41:26;2.40;99.90
7030;DHT22;3556;53.500;10.176;2022-12-07T04:44:00;2.40;99.90
7030;DHT22;3556;53.500;10.176;2022-12-07T04:46:27;2.40;99.90
7030;DHT22;3556;53.500;10.176;2022-12-07T04:48:54;2.40;99.90
7030;DHT22;3556;53.500;10.176;2022-12-07T04:51:23;2.40;99.90
7030;DHT22;3556;53.500;10.176;2022-12-07T04:53:49;2.30;99.90
7030;DHT22;3556;53.500;10.176;2022-12-07T04:56:15;2.30;99.90
7030;DHT22;3556;53.500;10.176;2022-12-07T04:58:43;2.20;99.90
7030;DHT22;3556;53.500;10.176;2022-12-07T05:01:09;2.10;99.90
7030;DHT22;3556;53.500;10.176;2022-12-07T05:03:36;2.00;99.90
7030;DHT22;3556;53.500;10.176;2022-12-07T05:06:03;2.00;99.90
7030;DHT22;3556;53.500;10.176;2022-12-07T05:08:28;1.90;99.90
7030;DHT22;3556;53.500;10.176;2022-12-07T05:10:54;1.90;99.90
7030;DHT22;3556;53.500;10.176;2022-12-07T05:13:20;1.80;99.90
7030;DHT22;3556;53.500;10.176;2022-12-07T05:15:47;1.80;99.90
7030;DHT22;3556;53.500;10.176;2022-12-07T05:18:12;1.80;99.90
7030;DHT22;3556;53.500;10.176;2022-12-07T05:20:39;1.70;99.90
7030;DHT22;3556;53.500;10.176;2022-12-07T05:23:05;1.70;99.90
7030;DHT22;3556;53.500;10.176;2022-12-07T05:25:30;1.60;99.90
7030;DHT22;3556;53.500;10.176;2022-12-07T05:27:56;1.60;99.90
7030;DHT22;3556;53.500;10.176;2022-12-07T05:30:23;1.60;99.90
7030;DHT22;3556;53.500;10.176;2022-12-07T05:32:49;1.50;99.90
7030;DHT22;3556;53.500;10.176;2022-12-07T05:35:15;1.50;99.90
7030;DHT22;3556;53.500;10.176;2022-12-07T05:37:40;1.40;99.90
7030;DHT22;3556;53.500;10.176;2022-12-07T05:40:06;1.40;99.90
7030;DHT22;3556;53.500;10.176;2022-12-07T05:42:32;1.30;99.90
7030;DHT22;3556;53.500;10.176;2022-12-07T05:44:58;1.30;99.90
7030;DHT22;3556;53.500;10.176;2022-12-07T05:47:23;1.20;99.90
7030;DHT22;3556;53.500;10.176;2022-12-07T05:49:49;1.20;99.90
7030;DHT22;3556;53.500;10.176;2022-12-07T05:52:15;1.10;99.90
7030;DHT22;3556;53.500;10.176;2022-12-07T05:54:40;1.10;99.90
7030;DHT22;3556;53.500;10.176;2022-12-07T05:57:06;1.00;99.90
7030;DHT22;3556;53.500;10.176;2022-12-07T05:59:32;1.00;99.90
7030;DHT22;3556;53.500;10.176;2022-12-07T06:02:06;0.90;99.90
7030;DHT22;3556;53.500;10.176;2022-12-07T06:04:34;0.80;99.90
7030;DHT22;3556;53.500;10.176;2022-12-07T06:07:00;0.80;99.90
7030;DHT22;3556;53.500;10.176;2022-12-07T06:09:27;0.70;99.90
7030;DHT22;3556;53.500;10.176;2022-12-07T06:11:53;0.70;99.90
7030;DHT22;3556;53.500;10.176;2022-12-07T06:14:38;0.70;99.90
7030;DHT22;3556;53.500;10.176;2022-12-07T06:17:04;0.60;99.90
7030;DHT22;3556;53.500;10.176;2022-12-07T06:19:30;0.50;99.90
7030;DHT22;3556;53.500;10.176;2022-12-07T06:21:56;0.50;99.90
7030;DHT22;3556;53.500;10.176;2022-12-07T06:24:21;0.50;99.90
7030;DHT22;3556;53.500;10.176;2022-12-07T06:26:47;0.40;99.90
7030;DHT22;3556;53.500;10.176;2022-12-07T06:29:13;0.40;99.90
7030;DHT22;3556;53.500;10.176;2022-12-07T06:31:40;0.30;99.90
7030;DHT22;3556;53.500;10.176;2022-12-07T06:34:09;0.30;99.90
7030;DHT22;3556;53.500;10.176;2022-12-07T06:36:35;0.30;99.90
7030;DHT22;3556;53.500;10.176;2022-12-07T06:39:01;0.30;99.90
7030;DHT22;3556;53.500;10.176;2022-12-07T06:41:27;0.30;99.90
7030;DHT22;3556;53.500;10.176;2022-12-07T06:43:53;0.20;99.90
7030;DHT22;3556;53.500;10.176;2022-12-07T06:46:18;0.20;99.90
7030;DHT22;3556;53.500;10.176;2022-12-07T06:48:44;0.20;99.90
7030;DHT22;3556;53.500;10.176;2022-12-07T06:51:10;0.20;99.90
7030;DHT22;3556;53.500;10.176;2022-12-07T06:53:36;0.20;99.90
7030;DHT22;3556;53.500;10.176;2022-12-07T06:56:03;0.10;99.90
7030;DHT22;3556;53.500;10.176;2022-12-07T06:58:29;0.10;99.90
7030;DHT22;3556;53.500;10.176;2022-12-07T07:00:54;0.10;99.90
7030;DHT22;3556;53.500;10.176;2022-12-07T07:03:20;0.10;99.90
7030;DHT22;3556;53.500;10.176;2022-12-07T07:05:46;0.10;99.90
7030;DHT22;3556;53.500;10.176;2022-12-07T07:08:12;0.10;99.90
7030;DHT22;3556;53.500;10.176;2022-12-07T07:10:38;0.10;99.90
7030;DHT22;3556;53.500;10.176;2022-12-07T07:13:04;0.10;99.90
7030;DHT22;3556;53.500;10.176;2022-12-07T07:15:30;0.20;99.90
7030;DHT22;3556;53.500;10.176;2022-12-07T07:17:56;0.20;99.90
7030;DHT22;3556;53.500;10.176;2022-12-07T07:20:22;0.20;99.90
7030;DHT22;3556;53.500;10.176;2022-12-07T07:22:48;0.30;99.90
7030;DHT22;3556;53.500;10.176;2022-12-07T07:25:14;0.30;99.90
7030;DHT22;3556;53.500;10.176;2022-12-07T07:27:40;0.40;99.90
7030;DHT22;3556;53.500;10.176;2022-12-07T07:30:07;0.50;99.90
7030;DHT22;3556;53.500;10.176;2022-12-07T07:32:32;0.60;99.90
7030;DHT22;3556;53.500;10.176;2022-12-07T07:34:58;0.60;99.90
7030;DHT22;3556;53.500;10.176;2022-12-07T07:37:24;0.60;99.90
7030;DHT22;3556;53.500;10.176;2022-12-07T07:39:49;0.70;99.90
7030;DHT22;3556;53.500;10.176;2022-12-07T07:42:15;0.80;99.90
7030;DHT22;3556;53.500;10.176;2022-12-07T07:44:41;0.80;99.90
7030;DHT22;3556;53.500;10.176;2022-12-07T07:47:06;0.90;99.90
7030;DHT22;3556;53.500;10.176;2022-12-07T07:49:32;1.00;99.90
7030;DHT22;3556;53.500;10.176;2022-12-07T07:51:58;1.00;99.90
7030;DHT22;3556;53.500;10.176;2022-12-07T07:54:23;1.00;99.90
7030;DHT22;3556;53.500;10.176;2022-12-07T07:56:49;1.10;99.90
7030;DHT22;3556;53.500;10.176;2022-12-07T07:59:15;1.10;99.90
7030;DHT22;3556;53.500;10.176;2022-12-07T08:01:41;1.20;99.90
7030;DHT22;3556;53.500;10.176;2022-12-07T08:04:06;1.20;99.90
7030;DHT22;3556;53.500;10.176;2022-12-07T08:06:32;1.30;99.90
7030;DHT22;3556;53.500;10.176;2022-12-07T08:08:58;1.40;99.90
7030;DHT22;3556;53.500;10.176;2022-12-07T08:11:24;1.40;99.90
7030;DHT22;3556;53.500;10.176;2022-12-07T08:13:50;1.50;99.90
7030;DHT22;3556;53.500;10.176;2022-12-07T08:16:15;1.50;99.90
7030;DHT22;3556;53.500;10.176;2022-12-07T08:18:42;1.50;99.90
7030;DHT22;3556;53.500;10.176;2022-12-07T08:21:11;1.60;99.90
7030;DHT22;3556;53.500;10.176;2022-12-07T08:23:37;1.60;99.90
7030;DHT22;3556;53.500;10.176;2022-12-07T08:26:05;1.60;99.90
7030;DHT22;3556;53.500;10.176;2022-12-07T08:28:31;1.70;99.90
7030;DHT22;3556;53.500;10.176;2022-12-07T08:31:01;1.70;99.90
7030;DHT22;3556;53.500;10.176;2022-12-07T08:33:27;1.70;99.90
7030;DHT22;3556;53.500;10.176;2022-12-07T08:35:52;1.80;99.90
7030;DHT22;3556;53.500;10.176;2022-12-07T08:38:18;1.90;99.90
7030;DHT22;3556;53.500;10.176;2022-12-07T08:40:44;1.90;99.90
7030;DHT22;3556;53.500;10.176;2022-12-07T08:43:09;1.90;99.90
7030;DHT22;3556;53.500;10.176;2022-12-07T08:45:35;2.00;99.90
7030;DHT22;3556;53.500;10.176;2022-12-07T08:48:06;2.00;99.90
7030;DHT22;3556;53.500;10.176;2022-12-07T08:50:32;2.00;99.90
7030;DHT22;3556;53.500;10.176;2022-12-07T08:52:59;2.10;99.90
7030;DHT22;3556;53.500;10.176;2022-12-07T08:55:27;2.10;99.90
7030;DHT22;3556;53.500;10.176;2022-12-07T08:57:53;2.20;99.90
7030;DHT22;3556;53.500;10.176;2022-12-07T09:00:19;2.20;99.90
7030;DHT22;3556;53.500;10.176;2022-12-07T09:02:45;2.20;99.90
7030;DHT22;3556;53.500;10.176;2022-12-07T09:05:11;2.30;99.90
7030;DHT22;3556;53.500;10.176;2022-12-07T09:07:37;2.40;99.90
7030;DHT22;3556;53.500;10.176;2022-12-07T09:10:06;2.40;99.90
7030;DHT22;3556;53.500;10.176;2022-12-07T09:12:32;2.50;99.90
7030;DHT22;3556;53.500;10.176;2022-12-07T09:14:57;2.50;99.90
7030;DHT22;3556;53.500;10.176;2022-12-07T09:17:23;2.60;99.90
7030;DHT22;3556;53.500;10.176;2022-12-07T09:19:48;2.70;99.90
7030;DHT22;3556;53.500;10.176;2022-12-07T09:22:14;2.80;99.90
7030;DHT22;3556;53.500;10.176;2022-12-07T09:24:40;2.90;99.90
7030;DHT22;3556;53.500;10.176;2022-12-07T09:27:05;2.90;99.90
7030;DHT22;3556;53.500;10.176;2022-12-07T09:29:31;3.00;99.90
7030;DHT22;3556;53.500;10.176;2022-12-07T09:31:57;3.10;99.90
7030;DHT22;3556;53.500;10.176;2022-12-07T09:34:22;3.20;99.90
7030;DHT22;3556;53.500;10.176;2022-12-07T09:36:48;3.20;99.90
7030;DHT22;3556;53.500;10.176;2022-12-07T09:39:14;3.30;99.90
7030;DHT22;3556;53.500;10.176;2022-12-07T09:41:42;3.30;99.90
7030;DHT22;3556;53.500;10.176;2022-12-07T09:44:13;3.40;99.90
7030;DHT22;3556;53.500;10.176;2022-12-07T09:46:42;3.50;99.90
7030;DHT22;3556;53.500;10.176;2022-12-07T09:49:20;3.50;99.90
7030;DHT22;3556;53.500;10.176;2022-12-07T09:51:47;3.50;99.90
7030;DHT22;3556;53.500;10.176;2022-12-07T09:54:16;3.60;99.90
7030;DHT22;3556;53.500;10.176;2022-12-07T09:56:42;3.60;99.90
7030;DHT22;3556;53.500;10.176;2022-12-07T09:59:26;3.70;99.90
7030;DHT22;3556;53.500;10.176;2022-12-07T10:01:52;3.70;99.90
7030;DHT22;3556;53.500;10.176;2022-12-07T10:04:23;3.70;99.90
7030;DHT22;3556;53.500;10.176;2022-12-07T10:06:50;3.80;99.90
7030;DHT22;3556;53.500;10.176;2022-12-07T10:09:21;3.80;99.90
7030;DHT22;3556;53.500;10.176;2022-12-07T10:12:10;3.80;99.90
7030;DHT22;3556;53.500;10.176;2022-12-07T10:15:00;3.80;99.90
7030;DHT22;3556;53.500;10.176;2022-12-07T10:20:19;3.80;99.90
7030;DHT22;3556;53.500;10.176;2022-12-07T10:23:02;3.90;99.90
7030;DHT22;3556;53.500;10.176;2022-12-07T10:25:35;3.90;99.90
7030;DHT22;3556;53.500;10.176;2022-12-07T10:30:47;3.90;99.90
7030;DHT22;3556;53.500;10.176;2022-12-07T10:33:37;3.90;99.90
7030;DHT22;3556;53.500;10.176;2022-12-07T10:36:27;4.00;99.90
7030;DHT22;3556;53.500;10.176;2022-12-07T10:39:03;4.00;99.90
7030;DHT22;3556;53.500;10.176;2022-12-07T10:41:29;4.00;99.90
7030;DHT22;3556;53.500;10.176;2022-12-07T10:43:57;4.00;99.90
7030;DHT22;3556;53.500;10.176;2022-12-07T10:46:32;4.00;99.90
7030;DHT22;3556;53.500;10.176;2022-12-07T10:51:58;4.00;99.90
7030;DHT22;3556;53.500;10.176;2022-12-07T10:57:29;4.00;99.90
7030;DHT22;3556;53.500;10.176;2022-12-07T11:00:21;4.00;99.90
7030;DHT22;3556;53.500;10.176;2022-12-07T11:03:05;4.10;99.90
7030;DHT22;3556;53.500;10.176;2022-12-07T11:06:02;4.20;99.90
7030;DHT22;3556;53.500;10.176;2022-12-07T11:08:40;4.20;99.90
7030;DHT22;3556;53.500;10.176;2022-12-07T11:11:09;4.30;99.90
7030;DHT22;3556;53.500;10.176;2022-12-07T11:19:53;4.30;99.90
7030;DHT22;3556;53.500;10.176;2022-12-07T11:22:51;4.30;99.90
7030;DHT22;3556;53.500;10.176;2022-12-07T11:33:46;4.20;99.90
7030;DHT22;3556;53.500;10.176;2022-12-07T11:39:03;4.20;99.90
7030;DHT22;3556;53.500;10.176;2022-12-07T11:41:34;4.10;99.90
7030;DHT22;3556;53.500;10.176;2022-12-07T11:46:57;4.20;99.90
7030;DHT22;3556;53.500;10.176;2022-12-07T11:49:33;4.10;99.90
7030;DHT22;3556;53.500;10.176;2022-12-07T11:52:04;4.20;99.90
7030;DHT22;3556;53.500;10.176;2022-12-07T11:54:40;4.20;99.90
7030;DHT22;3556;53.500;10.176;2022-12-07T11:57:16;4.20;99.90
7030;DHT22;3556;53.500;10.176;2022-12-07T11:59:52;4.30;99.90
7030;DHT22;3556;53.500;10.176;2022-12-07T12:02:36;4.20;99.90
7030;DHT22;3556;53.500;10.176;2022-12-07T12:05:19;4.20;99.90
7030;DHT22;3556;53.500;10.176;2022-12-07T12:08:00;4.30;99.90
7030;DHT22;3556;53.500;10.176;2022-12-07T12:10:47;4.20;99.90
7030;DHT22;3556;53.500;10.176;2022-12-07T12:13:41;4.30;99.90
7030;DHT22;3556;53.500;10.176;2022-12-07T12:19:15;4.30;99.90
7030;DHT22;3556;53.500;10.176;2022-12-07T12:21:45;4.30;99.90
7030;DHT22;3556;53.500;10.176;2022-12-07T12:24:23;4.30;99.90
7030;DHT22;3556;53.500;10.176;2022-12-07T12:27:37;4.30;99.90
7030;DHT22;3556;53.500;10.176;2022-12-07T12:29:39;4.40;99.90
7030;DHT22;3556;53.500;10.176;2022-12-07T12:32:15;4.40;99.90
7030;DHT22;3556;53.500;10.176;2022-12-07T12:42:57;4.40;99.90
7030;DHT22;3556;53.500;10.176;2022-12-07T12:45:28;4.40;99.90
7030;DHT22;3556;53.500;10.176;2022-12-07T12:50:41;4.40;99.90
7030;DHT22;3556;53.500;10.176;2022-12-07T12:53:35;4.50;99.90
7030;DHT22;3556;53.500;10.176;2022-12-07T12:56:21;4.60;99.90
7030;DHT22;3556;53.500;10.176;2022-12-07T12:58:49;4.60;99.90
7030;DHT22;3556;53.500;10.176;2022-12-07T13:01:42;4.60;99.90
7030;DHT22;3556;53.500;10.176;2022-12-07T13:06:44;4.60;99.90
7030;DHT22;3556;53.500;10.176;2022-12-07T13:09:27;4.70;99.90
7030;DHT22;3556;53.500;10.176;2022-12-07T13:12:04;4.70;99.90
7030;DHT22;3556;53.500;10.176;2022-12-07T13:14:53;4.70;99.90
7030;DHT22;3556;53.500;10.176;2022-12-07T13:20:01;5.00;99.90
7030;DHT22;3556;53.500;10.176;2022-12-07T13:25:09;5.20;99.90
7030;DHT22;3556;53.500;10.176;2022-12-07T13:27:39;5.50;99.90
7030;DHT22;3556;53.500;10.176;2022-12-07T13:30:18;5.90;99.90
7030;DHT22;3556;53.500;10.176;2022-12-07T13:32:55;6.00;99.90
7030;DHT22;3556;53.500;10.176;2022-12-07T13:35:35;5.90;99.90
7030;DHT22;3556;53.500;10.176;2022-12-07T13:38:13;5.60;99.90
7030;DHT22;3556;53.500;10.176;2022-12-07T13:40:40;5.30;99.90
7030;DHT22;3556;53.500;10.176;2022-12-07T13:43:14;5.10;99.90
7030;DHT22;3556;53.500;10.176;2022-12-07T13:45:41;4.90;99.90
7030;DHT22;3556;53.500;10.176;2022-12-07T13:48:32;4.70;99.90
7030;DHT22;3556;53.500;10.176;2022-12-07T13:51:00;4.60;99.90
7030;DHT22;3556;53.500;10.176;2022-12-07T13:53:27;4.60;99.90
7030;DHT22;3556;53.500;10.176;2022-12-07T13:55:59;4.50;99.90
7030;DHT22;3556;53.500;10.176;2022-12-07T13:58:27;4.50;99.90
7030;DHT22;3556;53.500;10.176;2022-12-07T14:00:55;4.40;99.90
7030;DHT22;3556;53.500;10.176;2022-12-07T14:03:33;4.40;99.90
7030;DHT22;3556;53.500;10.176;2022-12-07T14:06:06;4.30;99.90
7030;DHT22;3556;53.500;10.176;2022-12-07T14:08:31;4.30;99.90
7030;DHT22;3556;53.500;10.176;2022-12-07T14:10:58;4.20;99.90
7030;DHT22;3556;53.500;10.176;2022-12-07T14:13:28;4.20;99.90
7030;DHT22;3556;53.500;10.176;2022-12-07T14:15:56;4.20;99.90
7030;DHT22;3556;53.500;10.176;2022-12-07T14:18:41;4.20;99.90
7030;DHT22;3556;53.500;10.176;2022-12-07T14:23:37;4.10;99.90
7030;DHT22;3556;53.500;10.176;2022-12-07T14:26:07;4.10;99.90
7030;DHT22;3556;53.500;10.176;2022-12-07T14:28:37;4.10;99.90
7030;DHT22;3556;53.500;10.176;2022-12-07T14:31:04;4.00;99.90
7030;DHT22;3556;53.500;10.176;2022-12-07T14:33:33;4.00;99.90
7030;DHT22;3556;53.500;10.176;2022-12-07T14:35:59;3.90;99.90
7030;DHT22;3556;53.500;10.176;2022-12-07T14:38:25;3.80;99.90
7030;DHT22;3556;53.500;10.176;2022-12-07T14:40:52;3.70;99.90
7030;DHT22;3556;53.500;10.176;2022-12-07T14:43:19;3.70;99.90
7030;DHT22;3556;53.500;10.176;2022-12-07T14:45:45;3.60;99.90
7030;DHT22;3556;53.500;10.176;2022-12-07T14:48:13;3.60;99.90
7030;DHT22;3556;53.500;10.176;2022-12-07T14:50:44;3.50;99.90
7030;DHT22;3556;53.500;10.176;2022-12-07T14:53:14;3.40;99.90
7030;DHT22;3556;53.500;10.176;2022-12-07T14:55:40;3.30;99.90
7030;DHT22;3556;53.500;10.176;2022-12-07T14:58:09;3.30;99.90
7030;DHT22;3556;53.500;10.176;2022-12-07T15:00:36;3.20;99.90
7030;DHT22;3556;53.500;10.176;2022-12-07T15:03:02;3.10;99.90
7030;DHT22;3556;53.500;10.176;2022-12-07T15:05:27;3.00;99.90
7030;DHT22;3556;53.500;10.176;2022-12-07T15:07:53;2.90;99.90
7030;DHT22;3556;53.500;10.176;2022-12-07T15:10:25;2.80;99.90
7030;DHT22;3556;53.500;10.176;2022-12-07T15:12:55;2.70;99.90
7030;DHT22;3556;53.500;10.176;2022-12-07T15:15:41;2.60;99.90
7030;DHT22;3556;53.500;10.176;2022-12-07T15:18:06;2.50;99.90
7030;DHT22;3556;53.500;10.176;2022-12-07T15:20:32;2.40;99.90
7030;DHT22;3556;53.500;10.176;2022-12-07T15:22:58;2.30;99.90
7030;DHT22;3556;53.500;10.176;2022-12-07T15:25:23;2.30;99.90
7030;DHT22;3556;53.500;10.176;2022-12-07T15:27:49;2.20;99.90
7030;DHT22;3556;53.500;10.176;2022-12-07T15:30:15;2.20;99.90
7030;DHT22;3556;53.500;10.176;2022-12-07T15:32:41;2.10;99.90
7030;DHT22;3556;53.500;10.176;2022-12-07T15:35:07;2.10;99.90
7030;DHT22;3556;53.500;10.176;2022-12-07T15:37:33;2.00;99.90
7030;DHT22;3556;53.500;10.176;2022-12-07T15:39:58;2.00;99.90
7030;DHT22;3556;53.500;10.176;2022-12-07T15:42:24;1.90;99.90
7030;DHT22;3556;53.500;10.176;2022-12-07T15:44:50;1.90;99.90
7030;DHT22;3556;53.500;10.176;2022-12-07T15:47:33;1.80;99.90
7030;DHT22;3556;53.500;10.176;2022-12-07T15:49:58;1.80;99.90
7030;DHT22;3556;53.500;10.176;2022-12-07T15:52:24;1.70;99.90
7030;DHT22;3556;53.500;10.176;2022-12-07T15:54:50;1.60;99.90
7030;DHT22;3556;53.500;10.176;2022-12-07T15:57:15;1.50;99.90
7030;DHT22;3556;53.500;10.176;2022-12-07T15:59:41;1.50;99.90
7030;DHT22;3556;53.500;10.176;2022-12-07T16:02:09;1.50;99.90
7030;DHT22;3556;53.500;10.176;2022-12-07T16:04:35;1.40;99.90
7030;DHT22;3556;53.500;10.176;2022-12-07T16:07:01;1.40;99.90
7030;DHT22;3556;53.500;10.176;2022-12-07T16:09:27;1.40;99.90
7030;DHT22;3556;53.500;10.176;2022-12-07T16:11:53;1.40;99.90
7030;DHT22;3556;53.500;10.176;2022-12-07T16:14:19;1.30;99.90
7030;DHT22;3556;53.500;10.176;2022-12-07T16:16:44;1.30;99.90
7030;DHT22;3556;53.500;10.176;2022-12-07T16:19:10;1.20;99.90
7030;DHT22;3556;53.500;10.176;2022-12-07T16:21:36;1.20;99.90
7030;DHT22;3556;53.500;10.176;2022-12-07T16:24:03;1.10;99.90
7030;DHT22;3556;53.500;10.176;2022-12-07T16:26:28;1.00;99.90
7030;DHT22;3556;53.500;10.176;2022-12-07T16:28:54;1.00;99.90
7030;DHT22;3556;53.500;10.176;2022-12-07T16:31:22;0.90;99.90
7030;DHT22;3556;53.500;10.176;2022-12-07T16:33:49;0.90;99.90
7030;DHT22;3556;53.500;10.176;2022-12-07T16:36:15;0.80;99.90
7030;DHT22;3556;53.500;10.176;2022-12-07T16:38:42;0.70;99.90
7030;DHT22;3556;53.500;10.176;2022-12-07T16:41:08;0.70;99.90
7030;DHT22;3556;53.500;10.176;2022-12-07T16:43:35;0.60;99.90
7030;DHT22;3556;53.500;10.176;2022-12-07T16:46:01;0.60;99.90
7030;DHT22;3556;53.500;10.176;2022-12-07T16:48:27;0.50;99.90
7030;DHT22;3556;53.500;10.176;2022-12-07T16:50:53;0.40;99.90
7030;DHT22;3556;53.500;10.176;2022-12-07T16:53:23;0.40;99.90
7030;DHT22;3556;53.500;10.176;2022-12-07T16:55:50;0.40;99.90
7030;DHT22;3556;53.500;10.176;2022-12-07T16:58:16;0.30;99.90
7030;DHT22;3556;53.500;10.176;2022-12-07T17:00:43;0.20;99.90
7030;DHT22;3556;53.500;10.176;2022-12-07T17:03:09;0.20;99.90
7030;DHT22;3556;53.500;10.176;2022-12-07T17:05:40;0.10;99.90
7030;DHT22;3556;53.500;10.176;2022-12-07T17:08:06;0.10;99.90
7030;DHT22;3556;53.500;10.176;2022-12-07T17:10:34;0.10;99.90
7030;DHT22;3556;53.500;10.176;2022-12-07T17:13:01;0.00;99.90
7030;DHT22;3556;53.500;10.176;2022-12-07T17:15:27;0.00;99.90
7030;DHT22;3556;53.500;10.176;2022-12-07T17:17:55;-0.10;99.90
7030;DHT22;3556;53.500;10.176;2022-12-07T17:20:23;-0.10;99.90
7030;DHT22;3556;53.500;10.176;2022-12-07T17:22:49;-0.10;99.90
7030;DHT22;3556;53.500;10.176;2022-12-07T17:25:15;-0.20;99.90
7030;DHT22;3556;53.500;10.176;2022-12-07T17:27:42;-0.20;99.90
7030;DHT22;3556;53.500;10.176;2022-12-07T17:30:09;-0.20;99.90
7030;DHT22;3556;53.500;10.176;2022-12-07T17:32:35;-0.20;99.90
7030;DHT22;3556;53.500;10.176;2022-12-07T17:35:01;-0.30;99.90
7030;DHT22;3556;53.500;10.176;2022-12-07T17:37:27;-0.30;99.90
7030;DHT22;3556;53.500;10.176;2022-12-07T17:39:53;-0.30;99.90
7030;DHT22;3556;53.500;10.176;2022-12-07T17:42:23;-0.30;99.90
7030;DHT22;3556;53.500;10.176;2022-12-07T17:45:04;-0.30;99.90
7030;DHT22;3556;53.500;10.176;2022-12-07T17:47:30;-0.40;99.90